Stations météo

réclame
Mon MeteoGroup
Zeebrugge, Belgique (6418): Température de l'air & dewpoint: 19.02.2018 22:00:00 - 25.02.2018 22:00:00 (CET)Zeebrugge, Belgique (6418): Vitesse du vent & gusts: 19.02.2018 22:00:00 - 25.02.2018 22:00:00 (CET)Zeebrugge, Belgique (6418): Direction du vent: 19.02.2018 22:00:00 - 25.02.2018 22:00:00 (CET)Zeebrugge, Belgique (6418): reduced air pressure: 19.02.2018 22:00:00 - 25.02.2018 22:00:00 (CET)Zeebrugge, Belgique (6418): Ensoleillement: 19.02.2018 22:00:00 - 25.02.2018 22:00:00 (CET)Zeebrugge, Belgique (6418): Quantités de précipitations: 19.02.2018 22:00:00 - 25.02.2018 22:00:00 (CET)
Date & Time tt [°C] td [°C] ff [km/h] ff [knt] fx [km/h] fx [knt] dd ppp [hPa] sd [min] rr [mm]
25.02.2018 22:00:00 -0,5 -9,1 43 23 - - ENE 1029,8 - -
25.02.2018 21:00:00 0,0 -8,7 39 21 60 32 NE 1029,5 0 0,3
25.02.2018 20:00:00 0,4 -9,0 39 21 49 26 ENE 1029,0 0 0,2
25.02.2018 19:00:00 0,6 -9,6 36 19 46 25 ENE 1029,0 21 0,2
25.02.2018 18:00:00 1,0 -11,5 30 16 40 22 NE 1028,7 60 0,0
25.02.2018 17:00:00 1,2 -10,1 28 15 45 24 NE 1028,6 60 0,0
25.02.2018 16:00:00 1,4 -9,3 28 15 39 21 NE 1028,7 60 0,0
25.02.2018 15:00:00 1,7 -11,6 28 15 41 22 NE 1029,0 60 0,1
25.02.2018 14:00:00 0,7 -11,6 32 18 45 25 ENE 1029,1 60 0,0
25.02.2018 13:00:00 0,1 -9,9 32 18 43 23 ENE 1029,2 60 0,1
25.02.2018 12:00:00 -0,4 -9,2 34 19 43 23 ENE 1029,5 60 0,0
25.02.2018 11:00:00 -0,8 -8,6 35 19 46 25 E 1029,4 60 0,0
25.02.2018 10:00:00 -1,4 -8,0 38 21 48 26 E 1029,1 60 0,0
25.02.2018 09:00:00 -1,8 -7,7 37 20 50 27 E 1028,5 60 0,0
25.02.2018 08:00:00 -2,0 -8,4 40 22 51 27 ENE 1028,4 0 0,0
25.02.2018 07:00:00 -1,7 -8,3 40 21 50 27 E 1027,9 0 0,0
25.02.2018 06:00:00 -1,4 -8,2 39 21 48 26 ENE 1027,6 0 0,0
25.02.2018 05:00:00 -1,1 -8,1 37 20 46 25 ENE 1027,1 0 0,0
25.02.2018 04:00:00 -0,8 -7,7 35 19 49 27 ENE 1026,7 0 0,0
25.02.2018 03:00:00 -0,5 -7,5 39 21 52 28 ENE 1026,7 0 0,1
25.02.2018 02:00:00 -0,2 -7,2 39 21 50 27 ENE 1026,4 0 0,0
25.02.2018 01:00:00 0,2 -6,6 40 21 53 29 E 1026,5 0 0,0
25.02.2018 00:00:00 0,7 -6,3 42 23 55 30 ENE 1026,2 0 0,1
24.02.2018 23:00:00 1,1 -5,8 42 23 58 32 ENE 1025,8 0 0,0
24.02.2018 22:00:00 1,3 -5,4 44 24 57 31 ENE 1025,3 0 0,0
24.02.2018 21:00:00 1,6 -4,7 41 22 58 32 ENE 1025,0 0 0,1
24.02.2018 20:00:00 2,2 -3,8 43 23 55 30 ENE 1024,5 0 0,1
24.02.2018 19:00:00 2,4 -4,3 40 21 54 29 ENE 1024,1 0 0,1
24.02.2018 18:00:00 3,0 -4,5 39 21 55 30 ENE 1023,3 24 0,2
24.02.2018 17:00:00 3,9 -5,0 35 19 54 29 NE 1023,3 60 0,2
24.02.2018 16:00:00 4,7 -6,7 38 21 54 29 ENE 1023,0 60 0,1
24.02.2018 15:00:00 4,4 -7,6 38 21 55 30 ENE 1023,0 60 0,1
24.02.2018 14:00:00 3,8 -7,4 38 20 51 28 ENE 1023,0 60 0,1
24.02.2018 13:00:00 3,0 -8,3 36 19 48 26 E 1023,1 60 0,0
24.02.2018 12:00:00 1,6 -8,9 36 19 46 25 ENE 1023,6 60 0,0
24.02.2018 11:00:00 0,8 -8,2 36 19 48 26 E 1023,4 60 0,0
24.02.2018 10:00:00 -0,1 -7,2 34 18 44 24 E 1023,3 60 0,0
24.02.2018 09:00:00 -1,2 -7,0 29 15 44 24 E 1022,9 53 0,0
24.02.2018 08:00:00 -1,3 -7,1 34 19 46 25 E 1022,1 0 0,0
24.02.2018 07:00:00 -1,3 -6,5 29 16 42 23 E 1021,7 0 0,0
24.02.2018 06:00:00 -1,3 -6,5 34 18 44 24 E 1021,6 0 0,0
24.02.2018 05:00:00 -1,2 -6,1 32 17 43 23 E 1021,3 0 0,0
24.02.2018 04:00:00 -0,9 -5,8 31 17 42 23 E 1021,2 0 0,0
24.02.2018 03:00:00 -0,6 -5,6 33 18 45 24 E 1021,2 0 0,0
24.02.2018 02:00:00 -0,3 -5,6 37 20 48 26 E 1020,9 0 0,0
24.02.2018 01:00:00 0,1 -5,2 36 19 50 27 E 1021,1 0 0,1
24.02.2018 00:00:00 0,6 -4,8 36 20 43 23 ENE 1021,1 0 0,0
23.02.2018 23:00:00 1,0 -4,8 34 18 48 26 ENE 1020,7 0 0,0
23.02.2018 22:00:00 1,7 -4,6 34 18 47 25 ENE 1020,7 0 0,1
23.02.2018 21:00:00 2,1 -4,6 35 19 50 27 ENE 1020,7 0 0,0
23.02.2018 20:00:00 2,4 -4,3 35 19 46 25 ENE 1020,7 0 0,1
23.02.2018 19:00:00 2,4 -4,3 32 18 44 24 ENE 1020,4 11 0,2
23.02.2018 18:00:00 2,7 -5,0 33 18 42 23 ENE 1020,2 60 0,1
23.02.2018 17:00:00 2,7 -4,7 32 17 45 25 ENE 1020,5 60 0,1
23.02.2018 16:00:00 2,5 -4,3 34 18 46 25 ENE 1020,6 60 0,2
23.02.2018 15:00:00 2,3 -4,5 36 19 47 25 NE 1021,1 60 0,1
23.02.2018 14:00:00 2,3 -3,5 31 17 46 25 NE 1021,4 55 0,0
23.02.2018 13:00:00 2,5 -2,6 36 19 48 26 ENE 1022,0 57 0,1
23.02.2018 12:00:00 1,7 -3,0 34 19 48 26 ENE 1022,4 60 0,1
23.02.2018 11:00:00 1,3 -3,0 32 17 42 23 ENE 1022,8 60 0,1
23.02.2018 10:00:00 0,7 -3,4 32 17 43 23 ENE 1023,1 60 0,1
23.02.2018 09:00:00 0,9 -2,9 31 17 41 22 ENE 1023,1 45 0,1
23.02.2018 08:00:00 0,3 -3,4 31 17 43 23 ENE 1022,9 0 0,1
23.02.2018 07:00:00 0,8 -3,2 32 18 41 22 ENE 1022,6 0 0,1
23.02.2018 06:00:00 0,5 -3,5 31 17 41 22 ENE 1022,6 0 0,0
23.02.2018 05:00:00 0,6 -3,6 33 18 41 22 ENE 1022,6 0 0,1
23.02.2018 04:00:00 0,8 -3,6 29 16 41 22 ENE 1022,8 0 0,1
23.02.2018 03:00:00 1,1 -3,5 33 18 45 25 ENE 1023,0 0 0,1
23.02.2018 02:00:00 1,2 -3,5 34 18 42 23 ENE 1023,1 0 0,1
23.02.2018 01:00:00 1,3 -3,5 36 19 45 24 E 1023,4 0 0,0
23.02.2018 00:00:00 1,6 -3,6 36 19 52 28 ENE 1023,6 0 0,2
22.02.2018 23:00:00 2,1 -3,0 42 23 52 28 ENE 1023,5 0 0,1
22.02.2018 22:00:00 2,5 -2,7 39 21 52 28 NE 1023,2 0 0,2
22.02.2018 21:00:00 2,9 -2,4 33 18 47 26 NE 1023,0 0 0,0
22.02.2018 20:00:00 3,4 -2,0 37 20 48 26 NE 1022,9 0 0,0
22.02.2018 19:00:00 3,9 -2,5 32 18 44 24 NE 1022,6 9 0,0
22.02.2018 18:00:00 4,4 -3,4 29 16 44 24 NE 1022,7 60 0,0
22.02.2018 17:00:00 4,4 -3,3 32 18 47 25 NE 1022,7 60 0,0
22.02.2018 16:00:00 4,4 -3,0 30 16 40 22 NE 1023,1 60 0,0
22.02.2018 15:00:00 4,5 -3,6 23 12 35 19 NE 1023,7 60 0,0
22.02.2018 14:00:00 4,1 -3,6 25 13 36 19 NE 1024,4 60 0,0
22.02.2018 13:00:00 3,3 -3,3 25 14 36 19 ENE 1024,7 60 0,0
22.02.2018 12:00:00 2,9 -1,7 25 13 34 19 ENE 1024,8 60 0,0
22.02.2018 11:00:00 1,7 -2,5 26 14 37 20 ENE 1024,9 60 0,0
22.02.2018 10:00:00 0,7 -3,4 31 17 40 22 ENE 1024,9 60 0,1
22.02.2018 09:00:00 0,4 -3,5 29 16 41 22 ENE 1024,9 37 0,1
22.02.2018 08:00:00 0,5 -3,4 30 16 38 21 ENE 1024,5 0 0,0
22.02.2018 07:00:00 0,8 -3,2 32 18 40 22 E 1024,2 0 0,1
22.02.2018 06:00:00 0,9 -3,1 31 17 41 22 ENE 1024,1 0 0,1
22.02.2018 05:00:00 1,2 -2,9 28 15 37 20 NE 1024,1 0 0,1
22.02.2018 04:00:00 1,3 -2,8 24 13 34 19 NE 1024,2 0 0,1
22.02.2018 03:00:00 1,5 -2,6 25 13 35 19 NE 1024,7 0 0,0
22.02.2018 02:00:00 1,8 -2,4 25 14 36 19 ENE 1024,8 0 0,0
22.02.2018 01:00:00 2,0 -2,1 29 16 37 20 ENE 1025,2 0 0,1
22.02.2018 00:00:00 2,3 -2,0 24 13 36 19 NE 1025,3 0 0,0
21.02.2018 23:00:00 2,6 -1,8 27 14 39 21 NE 1025,6 0 0,0
21.02.2018 22:00:00 2,7 -1,7 29 15 40 22 NE 1025,7 0 0,0
21.02.2018 21:00:00 3,5 -0,7 26 14 36 19 NE 1025,4 0 0,0
21.02.2018 20:00:00 3,7 -0,8 27 15 37 20 NNE 1025,4 0 0,0
21.02.2018 19:00:00 3,9 -0,7 29 16 35 19 NNE 1025,3 0 0,0
21.02.2018 18:00:00 4,0 -0,6 23 12 29 16 NNE 1025,1 57 0,0
21.02.2018 17:00:00 4,0 -0,8 21 12 27 15 N 1025,1 60 0,0
21.02.2018 16:00:00 4,2 -1,6 19 10 25 13 N 1025,5 60 0,0
21.02.2018 15:00:00 4,7 -1,5 16 9 23 12 NE 1026,1 60 0,0
21.02.2018 14:00:00 - - - - - - - - - -
21.02.2018 13:00:00 4,3 -1,5 14 8 - - NE 1027,3 - -
21.02.2018 12:00:00 3,7 -1,2 18 10 25 14 NE 1027,4 - -
21.02.2018 11:00:00 3,2 -1,4 18 10 25 14 ENE 1027,4 - -
21.02.2018 10:00:00 2,8 -1,1 20 11 26 14 NE 1027,1 60 0,0
21.02.2018 09:00:00 2,4 -1,1 16 9 26 14 NE 1026,6 25 0,0
21.02.2018 08:00:00 2,1 -1,7 19 11 33 18 NE 1026,2 0 0,0
21.02.2018 07:00:00 2,6 -1,5 25 14 31 17 NE 1026,1 0 0,0
21.02.2018 06:00:00 3,1 -0,7 23 12 29 16 NNE 1026,1 0 0,0
21.02.2018 05:00:00 3,0 -0,2 21 11 27 15 NNE 1026,0 0 0,0
21.02.2018 04:00:00 2,8 -0,2 16 9 23 13 NE 1025,6 0 0,0
21.02.2018 03:00:00 2,8 -0,3 17 9 27 15 NE 1025,3 0 0,0
21.02.2018 02:00:00 2,8 -0,3 21 11 30 16 NE 1025,1 0 0,0
21.02.2018 01:00:00 3,1 -0,1 22 12 32 17 NE 1024,4 0 0,0
21.02.2018 00:00:00 3,3 0,1 21 11 34 18 NE 1024,3 0 0,0
20.02.2018 23:00:00 3,7 0,1 24 13 35 19 NE 1023,3 0 0,0
20.02.2018 22:00:00 4,2 0,5 24 13 32 17 NE 1023,0 0 0,0
20.02.2018 21:00:00 4,3 0,6 18 10 26 14 NE 1022,3 0 0,0
20.02.2018 20:00:00 4,3 0,5 18 10 26 14 NE 1021,3 0 0,0
20.02.2018 19:00:00 4,2 0,3 18 10 23 13 NE 1020,7 0 0,0
20.02.2018 18:00:00 4,5 1,8 17 9 22 12 NE 1020,1 0 0,0
20.02.2018 17:00:00 4,5 2,1 17 9 19 11 N 1019,8 0 0,0
20.02.2018 16:00:00 4,5 2,4 11 6 14 8 N 1019,3 0 0,0
20.02.2018 15:00:00 4,8 3,0 9 5 12 6 NE 1019,3 0 0,0
20.02.2018 14:00:00 5,3 4,0 9 5 12 6 NE 1019,4 0 0,0
20.02.2018 13:00:00 5,1 4,2 7 4 12 7 ESE 1019,5 0 0,0
20.02.2018 12:00:00 4,5 3,9 8 5 11 6 ESE 1019,4 0 0,0
20.02.2018 11:00:00 4,2 3,6 7 4 10 5 SE 1019,4 11 0,0
20.02.2018 10:00:00 3,7 3,2 6 3 8 4 ENE 1019,3 0 0,0
20.02.2018 09:00:00 3,6 3,1 5 3 10 5 ESE 1018,8 0 0,0
20.02.2018 08:00:00 3,4 2,9 7 4 9 5 E 1018,7 0 0,0
20.02.2018 07:00:00 3,1 2,6 7 4 16 9 SE 1018,6 0 0,0
20.02.2018 06:00:00 3,3 2,9 13 7 17 9 E 1018,1 0 0,0
20.02.2018 05:00:00 3,2 2,8 8 5 11 6 E 1018,1 0 0,0
20.02.2018 04:00:00 3,2 2,8 8 4 14 8 SE 1017,8 0 0,0
20.02.2018 03:00:00 3,2 2,7 11 6 16 9 ESE 1017,6 0 0,0
20.02.2018 02:00:00 3,3 2,9 12 7 17 9 E 1017,5 0 0,0
20.02.2018 01:00:00 3,3 2,9 11 6 17 9 SSE 1017,5 0 0,0
20.02.2018 00:00:00 3,5 3,0 15 8 21 11 ESE 1017,2 0 0,0
19.02.2018 23:00:00 3,7 3,2 17 9 24 13 SE 1017,0 0 0,0
19.02.2018 22:00:00 3,5 3,0 19 11 24 13 SE 1017,0 0 0,0

tt = Température de l'air
td = dewpoint
ff = Vitesse du vent
fx = gusts
dd = Direction du vent
ppp = reduced air pressure
sd = Ensoleillement
rr = Quantités de précipitations

stations d'obs. à proximité